createdAt,value
2023-02-18T00:00:21.470Z,100537.69
2023-02-18T00:02:50.322Z,100536.47
2023-02-18T00:05:20.279Z,100534.19
2023-02-18T00:07:47.560Z,100533.31
2023-02-18T00:10:15.864Z,100535.41
2023-02-18T00:12:43.483Z,100537.53
2023-02-18T00:15:11.225Z,100529.31
2023-02-18T00:17:38.531Z,100526.78
2023-02-18T00:20:06.896Z,100526.22
2023-02-18T00:22:36.039Z,100520.00
2023-02-18T00:25:03.662Z,100537.16
2023-02-18T00:27:30.951Z,100530.75
2023-02-18T00:29:59.213Z,100527.78
2023-02-18T00:32:26.488Z,100529.78
2023-02-18T00:34:53.890Z,100522.78
2023-02-18T00:37:21.165Z,100532.63
2023-02-18T00:39:49.756Z,100527.00
2023-02-18T00:42:17.023Z,100528.72
2023-02-18T00:44:44.379Z,100538.50
2023-02-18T00:47:11.772Z,100537.44
2023-02-18T00:49:39.214Z,100541.53
2023-02-18T00:52:06.587Z,100532.16
2023-02-18T00:54:33.850Z,100528.94
2023-02-18T00:57:02.443Z,100531.59
2023-02-18T00:59:29.721Z,100536.16
2023-02-18T01:01:57.066Z,100531.19
2023-02-18T01:04:24.432Z,100530.25
2023-02-18T01:06:52.489Z,100535.41
2023-02-18T01:09:19.752Z,100540.19
2023-02-18T01:11:47.066Z,100530.91
2023-02-18T01:14:15.672Z,100536.84
2023-02-18T01:16:42.972Z,100542.88
2023-02-18T01:19:10.275Z,100542.69
2023-02-18T01:21:37.547Z,100542.41
2023-02-18T01:24:05.200Z,100537.44
2023-02-18T01:26:32.509Z,100547.97
2023-02-18T01:28:59.795Z,100548.63
2023-02-18T01:31:28.605Z,100553.44
2023-02-18T01:33:55.980Z,100531.59
2023-02-18T01:36:23.276Z,100541.91
2023-02-18T01:38:50.610Z,100537.31
2023-02-18T01:41:17.895Z,100538.19
2023-02-18T01:43:45.149Z,100542.41
2023-02-18T01:46:17.604Z,100535.41
2023-02-18T01:48:48.009Z,100533.38
2023-02-18T01:51:17.336Z,100537.41
2023-02-18T01:53:48.191Z,100528.03
2023-02-18T01:56:17.399Z,100540.00
2023-02-18T01:58:44.758Z,100533.31
2023-02-18T02:01:12.171Z,100534.72
2023-02-18T02:03:39.761Z,100542.94
2023-02-18T02:06:13.495Z,100532.72
2023-02-18T02:08:40.850Z,100536.25
2023-02-18T02:11:11.954Z,100535.69
2023-02-18T02:13:49.994Z,100535.19
2023-02-18T02:16:22.690Z,100549.16
2023-02-18T02:18:57.021Z,100550.56
2023-02-18T02:21:39.232Z,100562.06
2023-02-18T02:24:30.286Z,100554.50
2023-02-18T02:27:06.872Z,100554.03
2023-02-18T02:29:58.694Z,100542.25
2023-02-18T02:32:39.116Z,100542.06
2023-02-18T02:35:09.072Z,100541.88
2023-02-18T02:37:39.397Z,100544.16
2023-02-18T02:40:13.037Z,100551.09
2023-02-18T02:42:47.907Z,100545.13
2023-02-18T02:45:19.634Z,100545.13
2023-02-18T02:47:51.986Z,100552.25
2023-02-18T02:50:24.384Z,100544.34
2023-02-18T02:52:54.187Z,100552.25
2023-02-18T02:55:21.581Z,100552.19
2023-02-18T02:57:50.315Z,100543.97
2023-02-18T03:00:19.244Z,100543.78
2023-02-18T03:03:04.661Z,100541.69
2023-02-18T03:05:39.390Z,100528.72
2023-02-18T03:08:26.225Z,100541.22
2023-02-18T03:10:59.448Z,100547.38
2023-02-18T03:13:30.234Z,100541.13
2023-02-18T03:15:59.780Z,100540.19
2023-02-18T03:18:31.390Z,100541.91
2023-02-18T03:21:04.276Z,100544.72
2023-02-18T03:23:35.951Z,100555.91
2023-02-18T03:26:04.372Z,100548.31
2023-02-18T03:28:32.342Z,100549.47
2023-02-18T03:31:01.844Z,100552.06
2023-02-18T03:33:32.046Z,100540.97
2023-02-18T03:36:01.294Z,100545.91
2023-02-18T03:38:30.899Z,100550.44
2023-02-18T03:40:58.449Z,100539.81
2023-02-18T03:43:25.731Z,100541.44
2023-02-18T03:45:53.165Z,100546.41
2023-02-18T03:48:20.479Z,100547.06
2023-02-18T03:50:47.757Z,100539.72
2023-02-18T03:53:16.462Z,100540.09
2023-02-18T03:55:43.735Z,100535.63
2023-02-18T03:58:10.977Z,100538.75
2023-02-18T04:00:38.249Z,100533.88
2023-02-18T04:03:05.553Z,100538.44
2023-02-18T04:05:32.900Z,100539.31
2023-02-18T04:08:00.160Z,100551.28
2023-02-18T04:10:28.767Z,100546.97
2023-02-18T04:12:56.066Z,100549.25
2023-02-18T04:15:23.357Z,100542.88
2023-02-18T04:17:50.778Z,100543.91
2023-02-18T04:20:18.149Z,100550.50
2023-02-18T04:22:45.476Z,100554.72
2023-02-18T04:25:12.756Z,100551.75
2023-02-18T04:27:41.344Z,100552.91
2023-02-18T04:30:09.039Z,100540.56
2023-02-18T04:32:36.312Z,100550.69
2023-02-18T04:35:03.622Z,100548.50
2023-02-18T04:37:30.878Z,100553.94
2023-02-18T04:39:58.150Z,100543.50
2023-02-18T04:42:25.414Z,100545.84
2023-02-18T04:44:54.022Z,100522.47
2023-02-18T04:47:21.373Z,100524.72
2023-02-18T04:49:48.701Z,100532.81
2023-02-18T04:52:16.204Z,100542.47
2023-02-18T04:54:43.502Z,100546.63
2023-02-18T04:57:11.002Z,100545.41
2023-02-18T04:59:38.362Z,100540.75
2023-02-18T05:02:06.956Z,100546.56
2023-02-18T05:04:34.232Z,100539.88
2023-02-18T05:07:01.640Z,100536.91
2023-02-18T05:09:28.929Z,100544.00
2023-02-18T05:11:56.169Z,100536.63
2023-02-18T05:14:23.492Z,100549.09
2023-02-18T05:16:50.812Z,100541.63
2023-02-18T05:19:19.419Z,100542.09
2023-02-18T05:21:46.721Z,100542.19
2023-02-18T05:24:13.995Z,100529.38
2023-02-18T05:26:41.246Z,100520.84
2023-02-18T05:29:08.538Z,100528.53
2023-02-18T05:31:35.937Z,100529.78
2023-02-18T05:34:03.265Z,100515.34
2023-02-18T05:36:31.864Z,100514.44
2023-02-18T05:38:59.128Z,100514.66
2023-02-18T05:41:26.495Z,100518.28
2023-02-18T05:44:11.453Z,100511.31
2023-02-18T05:46:38.744Z,100509.28
2023-02-18T05:49:06.049Z,100508.16
2023-02-18T05:51:34.641Z,100505.19
2023-02-18T05:54:01.923Z,100502.59
2023-02-18T05:56:29.214Z,100502.31
2023-02-18T05:58:56.499Z,100497.81
2023-02-18T06:01:23.795Z,100498.09
2023-02-18T06:03:51.072Z,100498.22
2023-02-18T06:06:18.406Z,100493.72
2023-02-18T06:08:47.006Z,100489.50
2023-02-18T06:11:14.265Z,100496.03
2023-02-18T06:13:41.516Z,100491.03
2023-02-18T06:16:09.153Z,100495.34
2023-02-18T06:18:36.869Z,100493.50
2023-02-18T06:21:04.786Z,100501.81
2023-02-18T06:23:32.200Z,100498.28
2023-02-18T06:26:00.820Z,100496.72
2023-02-18T06:28:28.087Z,100497.50
2023-02-18T06:30:55.374Z,100501.69
2023-02-18T06:33:22.636Z,100494.44
2023-02-18T06:35:56.877Z,100494.28
2023-02-18T06:38:24.163Z,100496.72
2023-02-18T06:40:52.010Z,100496.19
2023-02-18T06:43:21.041Z,100486.91
2023-02-18T06:45:48.292Z,100485.28
2023-02-18T06:48:16.852Z,100489.66
2023-02-18T06:50:44.514Z,100477.22
2023-02-18T06:53:11.775Z,100482.66
2023-02-18T06:55:39.556Z,100472.25
2023-02-18T06:58:07.137Z,100479.34
2023-02-18T07:00:35.770Z,100481.72
2023-02-18T07:03:03.092Z,100480.47
2023-02-18T07:05:30.470Z,100473.50
2023-02-18T07:07:57.811Z,100477.03
2023-02-18T07:10:25.418Z,100473.97
2023-02-18T07:12:52.677Z,100474.91
2023-02-18T07:15:24.099Z,100465.25
2023-02-18T07:17:52.724Z,100463.56
2023-02-18T07:20:20.778Z,100472.44
2023-02-18T07:22:48.549Z,100454.50
2023-02-18T07:25:16.016Z,100457.81
2023-02-18T07:27:43.321Z,100432.41
2023-02-18T07:30:10.885Z,100434.78
2023-02-18T07:32:38.200Z,100451.63
2023-02-18T07:35:07.572Z,100431.19
2023-02-18T07:37:34.851Z,100433.94
2023-02-18T07:40:02.130Z,100424.84
2023-02-18T07:42:29.432Z,100427.13
2023-02-18T07:44:56.675Z,100414.72
2023-02-18T07:47:23.985Z,100406.13
2023-02-18T07:49:51.267Z,100420.06
2023-02-18T07:52:20.175Z,100409.09
2023-02-18T07:54:47.475Z,100393.53
2023-02-18T07:57:14.784Z,100405.00
2023-02-18T07:59:42.204Z,100420.81
2023-02-18T08:02:16.034Z,100385.97
2023-02-18T08:04:43.316Z,100396.34
2023-02-18T08:07:13.058Z,100392.53
2023-02-18T08:09:41.713Z,100388.16
2023-02-18T08:12:08.996Z,100380.50
2023-02-18T08:14:36.333Z,100367.69
2023-02-18T08:17:03.624Z,100368.00
2023-02-18T08:19:30.907Z,100377.38
2023-02-18T08:22:01.775Z,100359.78
2023-02-18T08:24:29.061Z,100365.34
2023-02-18T08:27:01.280Z,100361.53
2023-02-18T08:29:29.339Z,100348.41
2023-02-18T08:31:58.111Z,100357.38
2023-02-18T08:34:25.627Z,100349.56
2023-02-18T08:36:52.929Z,100344.00
2023-02-18T08:39:20.246Z,100340.84
2023-02-18T08:41:47.521Z,100331.75
2023-02-18T08:44:16.111Z,100332.53
2023-02-18T08:46:43.404Z,100326.31
2023-02-18T08:49:10.731Z,100320.75
2023-02-18T08:51:38.169Z,100319.94
2023-02-18T08:54:05.692Z,100322.06
2023-02-18T08:56:33.525Z,100328.50
2023-02-18T08:59:00.807Z,100321.81
2023-02-18T09:01:29.450Z,100305.81
2023-02-18T09:03:57.095Z,100301.31
2023-02-18T09:06:24.723Z,100291.56
2023-02-18T09:08:52.325Z,100290.63
2023-02-18T09:11:20.505Z,100286.75
2023-02-18T09:13:48.107Z,100285.91
2023-02-18T09:16:18.205Z,100273.72
2023-02-18T09:18:47.569Z,100274.41
2023-02-18T09:21:15.950Z,100260.03
2023-02-18T09:23:43.393Z,100264.94
2023-02-18T09:26:12.056Z,100264.94
2023-02-18T09:28:40.032Z,100255.06
2023-02-18T09:31:08.105Z,100257.81
2023-02-18T09:33:36.501Z,100254.75
2023-02-18T09:36:05.760Z,100247.72
2023-02-18T09:38:33.113Z,100229.31
2023-02-18T09:41:01.681Z,100239.06
2023-02-18T09:43:31.786Z,100225.25
2023-02-18T09:46:00.100Z,100219.06
2023-02-18T09:48:28.734Z,100219.06
2023-02-18T09:50:56.366Z,100213.56
2023-02-18T09:53:25.559Z,100217.84
2023-02-18T09:55:53.758Z,100205.34
2023-02-18T09:58:21.876Z,100204.16
2023-02-18T10:00:50.897Z,100201.69
2023-02-18T10:03:19.825Z,100199.91
2023-02-18T10:05:52.678Z,100180.88
2023-02-18T10:08:22.217Z,100188.38
2023-02-18T10:10:50.835Z,100178.41
2023-02-18T10:13:19.286Z,100178.28
2023-02-18T10:15:46.794Z,100176.66
2023-02-18T10:18:26.902Z,100166.47
2023-02-18T10:20:58.072Z,100163.53
2023-02-18T10:23:25.581Z,100165.63
2023-02-18T10:25:54.745Z,100152.84
2023-02-18T10:28:24.472Z,100157.19
2023-02-18T10:30:54.123Z,100144.03
2023-02-18T10:33:27.820Z,100138.06
2023-02-18T10:35:58.505Z,100136.22
2023-02-18T10:38:31.374Z,100130.16
2023-02-18T10:41:05.653Z,100137.41
2023-02-18T10:43:38.909Z,100135.97
2023-02-18T10:46:11.557Z,100126.38
2023-02-18T10:48:45.130Z,100119.50
2023-02-18T10:51:15.652Z,100117.31
2023-02-18T10:53:44.858Z,100106.72
2023-02-18T10:56:32.348Z,100112.84
2023-02-18T10:59:02.145Z,100097.28
2023-02-18T11:01:31.506Z,100100.81
2023-02-18T11:04:05.893Z,100077.91
2023-02-18T11:06:34.914Z,100062.59
2023-02-18T11:09:03.014Z,100070.53
2023-02-18T11:11:32.989Z,100078.84
2023-02-18T11:14:01.398Z,100055.16
2023-02-18T11:16:37.840Z,100062.13
2023-02-18T11:19:05.257Z,100047.47
2023-02-18T11:21:34.383Z,100026.34
2023-02-18T11:24:08.282Z,100028.88
2023-02-18T11:26:37.803Z,100014.22
2023-02-18T11:29:08.245Z,100022.53
2023-02-18T11:31:41.279Z,100012.13
2023-02-18T11:34:15.404Z,100016.00
2023-02-18T11:36:43.012Z,100006.00
2023-02-18T11:39:18.244Z,100002.91
2023-02-18T11:41:48.597Z,99991.13
2023-02-18T11:44:20.630Z,99991.47
2023-02-18T11:46:57.332Z,99981.16
2023-02-18T11:49:25.912Z,99975.41
2023-02-18T11:51:53.647Z,99968.50
2023-02-18T11:54:24.806Z,99969.94
2023-02-18T11:56:57.162Z,99952.75
2023-02-18T11:59:25.133Z,99971.81
2023-02-18T12:01:55.346Z,99967.22
2023-02-18T12:04:25.588Z,99967.22
2023-02-18T12:06:55.162Z,99965.75
2023-02-18T12:09:25.941Z,99935.25
2023-02-18T12:11:54.849Z,99956.88
2023-02-18T12:14:24.770Z,99968.28
2023-02-18T12:17:08.542Z,99961.72
2023-02-18T12:19:44.571Z,99962.84
2023-02-18T12:22:15.742Z,99960.50
2023-02-18T12:24:50.026Z,99965.75
2023-02-18T12:27:21.639Z,99971.78
2023-02-18T12:29:56.309Z,99947.69
2023-02-18T12:32:29.488Z,99963.59
2023-02-18T12:35:01.209Z,99964.59
2023-02-18T12:37:47.603Z,99956.59
2023-02-18T12:40:28.483Z,99950.13
2023-02-18T12:42:59.228Z,99955.72
2023-02-18T12:45:39.756Z,99959.34
2023-02-18T12:48:17.368Z,99950.13
2023-02-18T12:50:49.380Z,99954.91
2023-02-18T12:53:30.853Z,99972.88
2023-02-18T12:56:08.385Z,99965.47
2023-02-18T12:58:40.207Z,99975.50
2023-02-18T13:01:19.447Z,99960.84
2023-02-18T13:04:04.910Z,99961.31
2023-02-18T13:06:43.304Z,99974.25
2023-02-18T13:09:17.205Z,99970.84
2023-02-18T13:11:49.329Z,99969.72
2023-02-18T13:14:19.645Z,99970.72
2023-02-18T13:16:52.132Z,99965.72
2023-02-18T13:19:22.316Z,99954.47
2023-02-18T13:21:50.593Z,99947.66
2023-02-18T13:24:23.972Z,99940.44
2023-02-18T13:26:53.791Z,99954.97
2023-02-18T13:29:24.895Z,99958.00
2023-02-18T13:32:00.490Z,99956.13
2023-02-18T13:34:30.060Z,99950.66
2023-02-18T13:37:06.647Z,99950.56
2023-02-18T13:39:34.082Z,99945.72
2023-02-18T13:42:12.499Z,99946.91
2023-02-18T13:44:58.614Z,99956.69
2023-02-18T13:47:40.695Z,99961.56
2023-02-18T13:50:25.550Z,99966.78
2023-02-18T13:52:58.837Z,99967.03
2023-02-18T13:55:28.254Z,99960.59
2023-02-18T13:57:59.429Z,99955.44
2023-02-18T14:00:35.155Z,99968.50
2023-02-18T14:03:19.756Z,99972.28
2023-02-18T14:05:47.052Z,99960.59
2023-02-18T14:08:15.298Z,99967.41
2023-02-18T14:10:43.073Z,99948.13
2023-02-18T14:13:24.666Z,99938.75
2023-02-18T14:15:54.595Z,99950.34
2023-02-18T14:18:28.085Z,99949.84
2023-02-18T14:21:06.751Z,99949.13
2023-02-18T14:23:44.506Z,99952.16
2023-02-18T14:26:19.264Z,99980.84
2023-02-18T14:28:51.261Z,99965.81
2023-02-18T14:31:29.907Z,99954.13
2023-02-18T14:34:10.815Z,99956.44
2023-02-18T14:36:40.691Z,99951.28
2023-02-18T14:39:12.158Z,99941.03
2023-02-18T14:41:44.189Z,99950.81
2023-02-18T14:44:29.478Z,99958.88
2023-02-18T14:47:06.746Z,99970.34
2023-02-18T14:49:40.356Z,99959.47
2023-02-18T14:52:12.465Z,99959.34
2023-02-18T14:54:41.111Z,99972.41
2023-02-18T14:57:10.479Z,99973.41
2023-02-18T14:59:40.947Z,99970.81
2023-02-18T15:02:15.893Z,99974.00
2023-02-18T15:04:45.908Z,99987.91
2023-02-18T15:07:13.586Z,99995.53
2023-02-18T15:09:46.293Z,100005.81
2023-02-18T15:12:15.438Z,100009.75
2023-02-18T15:14:44.059Z,100013.88
2023-02-18T15:17:18.597Z,100003.47
2023-02-18T15:19:50.009Z,100001.94
2023-02-18T15:22:19.061Z,99996.81
2023-02-18T15:24:46.826Z,99995.84
2023-02-18T15:27:15.615Z,99991.09
2023-02-18T15:29:43.499Z,100003.28
2023-02-18T15:32:16.560Z,99988.66
2023-02-18T15:34:48.940Z,99995.88
2023-02-18T15:37:18.035Z,99999.84
2023-02-18T15:39:49.604Z,99994.22
2023-02-18T15:42:20.340Z,100003.22
2023-02-18T15:44:49.080Z,100005.94
2023-02-18T15:47:17.445Z,100001.06
2023-02-18T15:49:47.394Z,100007.19
2023-02-18T15:52:14.889Z,100005.59
2023-02-18T15:54:43.624Z,99998.78
2023-02-18T15:57:14.074Z,100001.56
2023-02-18T15:59:44.677Z,99974.72
2023-02-18T16:02:15.911Z,99993.53
2023-02-18T16:04:46.278Z,99978.13
2023-02-18T16:07:24.838Z,99984.75
2023-02-18T16:09:58.543Z,100009.41
2023-02-18T16:12:29.221Z,100005.50
2023-02-18T16:14:57.494Z,100009.03
2023-02-18T16:17:26.281Z,100019.69
2023-02-18T16:20:04.393Z,100004.78
2023-02-18T16:22:34.584Z,100017.56
2023-02-18T16:25:08.331Z,100027.59
2023-02-18T16:27:37.235Z,100027.34
2023-02-18T16:30:08.040Z,100030.16
2023-02-18T16:32:35.445Z,100040.44
2023-02-18T16:35:03.532Z,100041.88
2023-02-18T16:37:40.084Z,100025.88
2023-02-18T16:40:28.217Z,100037.84
2023-02-18T16:42:57.750Z,100046.28
2023-02-18T16:45:31.553Z,100040.19
2023-02-18T16:47:58.825Z,100051.63
2023-02-18T16:50:28.667Z,100027.56
2023-02-18T16:52:56.256Z,100047.50
2023-02-18T16:55:25.495Z,100064.72
2023-02-18T16:57:52.771Z,100062.75
2023-02-18T17:00:22.395Z,100064.44
2023-02-18T17:02:50.912Z,100070.19
2023-02-18T17:05:26.354Z,100068.25
2023-02-18T17:07:54.631Z,100061.38
2023-02-18T17:10:22.284Z,100067.03
2023-02-18T17:12:49.560Z,100066.19
2023-02-18T17:15:24.666Z,100068.38
2023-02-18T17:17:51.983Z,100090.97
2023-02-18T17:20:19.428Z,100085.09
2023-02-18T17:22:46.744Z,100086.09
2023-02-18T17:25:18.365Z,100087.50
2023-02-18T17:27:47.939Z,100097.00
2023-02-18T17:30:15.794Z,100105.81
2023-02-18T17:32:44.985Z,100096.75
2023-02-18T17:35:16.254Z,100098.00
2023-02-18T17:37:43.558Z,100107.25
2023-02-18T17:40:14.187Z,100126.91
2023-02-18T17:42:41.454Z,100122.75
2023-02-18T17:45:16.697Z,100124.69
2023-02-18T17:47:46.173Z,100121.28
2023-02-18T17:50:13.498Z,100118.50
2023-02-18T17:52:40.798Z,100140.81
2023-02-18T17:55:19.216Z,100143.41
2023-02-18T17:57:46.828Z,100139.81
2023-02-18T18:00:15.619Z,100140.69
2023-02-18T18:02:43.066Z,100149.19
2023-02-18T18:05:16.969Z,100150.09
2023-02-18T18:07:44.247Z,100150.66
2023-02-18T18:10:11.824Z,100145.81
2023-02-18T18:12:39.253Z,100161.56
2023-02-18T18:15:18.928Z,100159.13
2023-02-18T18:17:46.403Z,100171.03
2023-02-18T18:20:13.842Z,100163.81
2023-02-18T18:22:42.492Z,100163.53
2023-02-18T18:25:16.886Z,100176.09
2023-02-18T18:27:47.563Z,100178.66
2023-02-18T18:30:15.078Z,100182.81
2023-02-18T18:32:42.384Z,100184.19
2023-02-18T18:35:24.325Z,100184.75
2023-02-18T18:37:53.311Z,100195.16
2023-02-18T18:40:21.244Z,100197.09
2023-02-18T18:42:48.851Z,100211.97
2023-02-18T18:45:17.841Z,100192.66
2023-02-18T18:47:45.196Z,100207.22
2023-02-18T18:50:12.947Z,100204.03
2023-02-18T18:52:43.406Z,100205.88
2023-02-18T18:55:18.974Z,100202.03
2023-02-18T18:57:47.262Z,100206.22
2023-02-18T19:00:15.187Z,100210.75
2023-02-18T19:02:42.552Z,100209.03
2023-02-18T19:05:15.808Z,100213.66
2023-02-18T19:07:43.093Z,100213.75
2023-02-18T19:10:10.445Z,100206.03
2023-02-18T19:12:39.101Z,100223.72
2023-02-18T19:15:06.611Z,100205.13
2023-02-18T19:17:33.930Z,100205.22
2023-02-18T19:20:01.226Z,100215.63
2023-02-18T19:22:28.522Z,100208.13
2023-02-18T19:24:55.814Z,100207.38
2023-02-18T19:27:23.121Z,100205.53
2023-02-18T19:29:54.212Z,100212.56
2023-02-18T19:32:24.515Z,100217.28
2023-02-18T19:34:52.160Z,100208.41
2023-02-18T19:37:19.524Z,100213.31
2023-02-18T19:39:46.929Z,100220.63
2023-02-18T19:42:14.582Z,100208.22
2023-02-18T19:44:42.007Z,100222.81
2023-02-18T19:47:10.898Z,100217.84
2023-02-18T19:49:38.318Z,100230.66
2023-02-18T19:52:05.730Z,100223.25
2023-02-18T19:54:33.414Z,100230.38
2023-02-18T19:57:01.029Z,100236.81
2023-02-18T19:59:30.498Z,100238.53
2023-02-18T20:01:57.879Z,100237.38
2023-02-18T20:04:26.640Z,100240.66
2023-02-18T20:06:53.934Z,100237.13
2023-02-18T20:12:12.319Z,100241.75
2023-02-18T20:14:40.039Z,100266.03
2023-02-18T20:17:07.665Z,100251.41
2023-02-18T20:19:36.342Z,100248.41
2023-02-18T20:22:03.977Z,100250.03
2023-02-18T20:24:32.131Z,100247.75
2023-02-18T20:27:02.513Z,100243.81
2023-02-18T20:29:33.531Z,100248.09
2023-02-18T20:32:01.547Z,100252.69
2023-02-18T20:34:29.057Z,100248.19
2023-02-18T20:36:58.015Z,100258.16
2023-02-18T20:39:25.342Z,100259.34
2023-02-18T20:41:52.733Z,100255.06
2023-02-18T20:44:20.876Z,100264.28
2023-02-18T20:46:49.469Z,100266.13
2023-02-18T20:49:18.903Z,100263.72
2023-02-18T20:51:46.269Z,100255.06
2023-02-18T20:54:15.910Z,100263.22
2023-02-18T20:56:43.722Z,100257.41
2023-02-18T20:59:14.419Z,100267.16
2023-02-18T21:01:41.821Z,100256.34
2023-02-18T21:04:10.924Z,100252.47
2023-02-18T21:06:38.250Z,100250.53
2023-02-18T21:09:05.660Z,100251.84
2023-02-18T21:11:37.501Z,100248.31
2023-02-18T21:14:05.368Z,100253.34
2023-02-18T21:16:34.512Z,100264.28
2023-02-18T21:19:01.838Z,100259.13
2023-02-18T21:21:29.126Z,100253.03
2023-02-18T21:23:56.461Z,100247.34
2023-02-18T21:26:25.181Z,100254.88
2023-02-18T21:28:54.650Z,100252.28
2023-02-18T21:31:23.438Z,100257.97
2023-02-18T21:33:50.830Z,100251.09
2023-02-18T21:36:21.750Z,100248.09
2023-02-18T21:38:51.870Z,100255.91
2023-02-18T21:41:19.266Z,100260.00
2023-02-18T21:43:47.156Z,100251.81
2023-02-18T21:46:18.072Z,100264.28
2023-02-18T21:49:05.679Z,100263.44
2023-02-18T21:51:52.488Z,100261.69
2023-02-18T21:54:20.665Z,100258.06
2023-02-18T21:56:48.527Z,100255.28
2023-02-18T21:59:19.482Z,100260.97
2023-02-18T22:01:48.262Z,100261.91
2023-02-18T22:04:15.886Z,100256.69
2023-02-18T22:06:43.364Z,100260.09
2023-02-18T22:09:10.880Z,100252.91
2023-02-18T22:11:38.191Z,100260.53
2023-02-18T22:14:05.540Z,100259.47
2023-02-18T22:16:32.859Z,100255.28
2023-02-18T22:19:01.505Z,100264.50
2023-02-18T22:21:28.837Z,100268.25
2023-02-18T22:23:56.170Z,100263.66
2023-02-18T22:26:23.509Z,100264.41
2023-02-18T22:28:54.509Z,100256.03
2023-02-18T22:31:22.369Z,100261.72
2023-02-18T22:33:51.430Z,100261.72
2023-02-18T22:36:20.823Z,100264.50
2023-02-18T22:38:48.529Z,100254.53
2023-02-18T22:41:16.619Z,100260.41
2023-02-18T22:43:44.057Z,100251.94
2023-02-18T22:46:13.076Z,100265.88
2023-02-18T22:48:40.617Z,100265.59
2023-02-18T22:51:09.058Z,100278.13
2023-02-18T22:53:38.506Z,100270.50
2023-02-18T22:56:06.835Z,100267.91
2023-02-18T22:58:34.473Z,100264.94
2023-02-18T23:01:01.854Z,100265.78
2023-02-18T23:03:29.735Z,100270.16
2023-02-18T23:06:01.862Z,100266.09
2023-02-18T23:08:29.466Z,100266.19
2023-02-18T23:11:04.646Z,100270.06
2023-02-18T23:13:31.944Z,100265.88
2023-02-18T23:16:00.139Z,100275.00
2023-02-18T23:18:28.104Z,100264.38
2023-02-18T23:21:18.734Z,100271.91
2023-02-18T23:23:46.859Z,100264.72
2023-02-18T23:26:15.690Z,100256.22
2023-02-18T23:28:49.096Z,100260.63
2023-02-18T23:31:17.160Z,100266.41
2023-02-18T23:33:44.929Z,100259.00
2023-02-18T23:36:13.013Z,100262.47
2023-02-18T23:38:40.355Z,100248.06
2023-02-18T23:41:08.607Z,100257.19
2023-02-18T23:43:37.414Z,100259.44
2023-02-18T23:46:04.787Z,100258.72
2023-02-18T23:48:32.109Z,100256.69
2023-02-18T23:51:00.112Z,100251.41
2023-02-18T23:53:27.783Z,100249.25
2023-02-18T23:56:02.737Z,100248.19
2023-02-18T23:58:30.055Z,100241.53
